sensor_id;sensor_type;location;lat;lon;timestamp;P1;durP1;ratioP1;P2;durP2;ratioP2
36979;SDS011;22891;50.562;7.272;2022-07-22T00:01:38;0.10;;;0.10;;
36979;SDS011;22891;50.562;7.272;2022-07-22T00:04:04;0.10;;;0.10;;
36979;SDS011;22891;50.562;7.272;2022-07-22T00:06:30;0.10;;;0.10;;
36979;SDS011;22891;50.562;7.272;2022-07-22T00:08:56;0.08;;;0.08;;
36979;SDS011;22891;50.562;7.272;2022-07-22T00:11:23;0.10;;;0.10;;
36979;SDS011;22891;50.562;7.272;2022-07-22T00:13:50;0.10;;;0.10;;
36979;SDS011;22891;50.562;7.272;2022-07-22T00:16:16;0.10;;;0.10;;
36979;SDS011;22891;50.562;7.272;2022-07-22T00:18:42;0.10;;;0.10;;
36979;SDS011;22891;50.562;7.272;2022-07-22T00:21:09;0.00;;;0.00;;
36979;SDS011;22891;50.562;7.272;2022-07-22T00:23:35;0.10;;;0.10;;
36979;SDS011;22891;50.562;7.272;2022-07-22T00:26:01;0.10;;;0.10;;
36979;SDS011;22891;50.562;7.272;2022-07-22T00:28:27;0.10;;;0.10;;
36979;SDS011;22891;50.562;7.272;2022-07-22T00:30:53;0.10;;;0.10;;
36979;SDS011;22891;50.562;7.272;2022-07-22T00:33:19;0.10;;;0.10;;
36979;SDS011;22891;50.562;7.272;2022-07-22T00:35:45;0.10;;;0.10;;
36979;SDS011;22891;50.562;7.272;2022-07-22T00:38:11;0.10;;;0.10;;
36979;SDS011;22891;50.562;7.272;2022-07-22T00:40:37;0.10;;;0.10;;
36979;SDS011;22891;50.562;7.272;2022-07-22T00:43:03;0.10;;;0.10;;
36979;SDS011;22891;50.562;7.272;2022-07-22T00:45:29;0.10;;;0.10;;
36979;SDS011;22891;50.562;7.272;2022-07-22T00:47:56;0.10;;;0.10;;
36979;SDS011;22891;50.562;7.272;2022-07-22T00:50:22;0.10;;;0.10;;
36979;SDS011;22891;50.562;7.272;2022-07-22T00:52:49;0.10;;;0.10;;
36979;SDS011;22891;50.562;7.272;2022-07-22T00:55:15;0.10;;;0.10;;
36979;SDS011;22891;50.562;7.272;2022-07-22T00:57:41;0.10;;;0.10;;
36979;SDS011;22891;50.562;7.272;2022-07-22T01:00:09;0.10;;;0.10;;
36979;SDS011;22891;50.562;7.272;2022-07-22T01:02:40;0.10;;;0.10;;
36979;SDS011;22891;50.562;7.272;2022-07-22T01:05:06;0.10;;;0.10;;
36979;SDS011;22891;50.562;7.272;2022-07-22T01:07:32;0.10;;;0.10;;
36979;SDS011;22891;50.562;7.272;2022-07-22T01:09:58;0.10;;;0.10;;
36979;SDS011;22891;50.562;7.272;2022-07-22T01:12:24;0.10;;;0.10;;
36979;SDS011;22891;50.562;7.272;2022-07-22T01:14:50;0.10;;;0.10;;
36979;SDS011;22891;50.562;7.272;2022-07-22T01:17:16;0.10;;;0.10;;
36979;SDS011;22891;50.562;7.272;2022-07-22T01:19:42;0.10;;;0.10;;
36979;SDS011;22891;50.562;7.272;2022-07-22T01:22:08;0.10;;;0.10;;
36979;SDS011;22891;50.562;7.272;2022-07-22T01:24:34;0.10;;;0.10;;
36979;SDS011;22891;50.562;7.272;2022-07-22T01:27:00;0.10;;;0.10;;
36979;SDS011;22891;50.562;7.272;2022-07-22T01:29:26;0.10;;;0.10;;
36979;SDS011;22891;50.562;7.272;2022-07-22T01:31:52;0.10;;;0.10;;
36979;SDS011;22891;50.562;7.272;2022-07-22T01:34:18;0.10;;;0.10;;
36979;SDS011;22891;50.562;7.272;2022-07-22T01:36:45;0.10;;;0.10;;
36979;SDS011;22891;50.562;7.272;2022-07-22T01:39:11;0.10;;;0.10;;
36979;SDS011;22891;50.562;7.272;2022-07-22T01:41:37;0.10;;;0.10;;
36979;SDS011;22891;50.562;7.272;2022-07-22T01:44:03;0.10;;;0.10;;
36979;SDS011;22891;50.562;7.272;2022-07-22T01:46:29;0.10;;;0.10;;
36979;SDS011;22891;50.562;7.272;2022-07-22T01:48:55;0.10;;;0.10;;
36979;SDS011;22891;50.562;7.272;2022-07-22T01:51:21;0.10;;;0.10;;
36979;SDS011;22891;50.562;7.272;2022-07-22T01:53:46;0.10;;;0.10;;
36979;SDS011;22891;50.562;7.272;2022-07-22T01:56:12;0.10;;;0.10;;
36979;SDS011;22891;50.562;7.272;2022-07-22T01:58:39;0.00;;;0.00;;
36979;SDS011;22891;50.562;7.272;2022-07-22T02:01:05;0.08;;;0.08;;
36979;SDS011;22891;50.562;7.272;2022-07-22T02:03:31;0.10;;;0.10;;
36979;SDS011;22891;50.562;7.272;2022-07-22T02:05:57;0.10;;;0.10;;
36979;SDS011;22891;50.562;7.272;2022-07-22T02:08:23;0.10;;;0.10;;
36979;SDS011;22891;50.562;7.272;2022-07-22T02:10:49;0.10;;;0.10;;
36979;SDS011;22891;50.562;7.272;2022-07-22T02:13:15;0.10;;;0.10;;
36979;SDS011;22891;50.562;7.272;2022-07-22T02:15:41;0.10;;;0.10;;
36979;SDS011;22891;50.562;7.272;2022-07-22T02:18:13;0.10;;;0.10;;
36979;SDS011;22891;50.562;7.272;2022-07-22T02:20:41;0.10;;;0.10;;
36979;SDS011;22891;50.562;7.272;2022-07-22T02:23:09;0.10;;;0.10;;
36979;SDS011;22891;50.562;7.272;2022-07-22T02:25:37;0.10;;;0.10;;
36979;SDS011;22891;50.562;7.272;2022-07-22T02:28:04;0.10;;;0.10;;
36979;SDS011;22891;50.562;7.272;2022-07-22T02:30:30;0.10;;;0.10;;
36979;SDS011;22891;50.562;7.272;2022-07-22T02:32:57;0.10;;;0.10;;
36979;SDS011;22891;50.562;7.272;2022-07-22T02:35:23;0.10;;;0.10;;
36979;SDS011;22891;50.562;7.272;2022-07-22T02:37:49;0.10;;;0.10;;
36979;SDS011;22891;50.562;7.272;2022-07-22T02:40:15;0.10;;;0.10;;
36979;SDS011;22891;50.562;7.272;2022-07-22T02:42:42;0.10;;;0.10;;
36979;SDS011;22891;50.562;7.272;2022-07-22T02:45:08;0.10;;;0.10;;
36979;SDS011;22891;50.562;7.272;2022-07-22T02:47:35;0.05;;;0.05;;
36979;SDS011;22891;50.562;7.272;2022-07-22T02:50:10;0.10;;;0.10;;
36979;SDS011;22891;50.562;7.272;2022-07-22T02:52:35;0.10;;;0.10;;
36979;SDS011;22891;50.562;7.272;2022-07-22T02:55:01;0.10;;;0.10;;
36979;SDS011;22891;50.562;7.272;2022-07-22T02:57:27;0.10;;;0.10;;
36979;SDS011;22891;50.562;7.272;2022-07-22T02:59:53;0.10;;;0.10;;
36979;SDS011;22891;50.562;7.272;2022-07-22T03:02:19;0.10;;;0.10;;
36979;SDS011;22891;50.562;7.272;2022-07-22T03:04:44;0.10;;;0.10;;
36979;SDS011;22891;50.562;7.272;2022-07-22T03:07:10;0.10;;;0.10;;
36979;SDS011;22891;50.562;7.272;2022-07-22T03:09:36;0.17;;;0.17;;
36979;SDS011;22891;50.562;7.272;2022-07-22T03:12:02;0.10;;;0.10;;
36979;SDS011;22891;50.562;7.272;2022-07-22T03:14:28;0.10;;;0.10;;
36979;SDS011;22891;50.562;7.272;2022-07-22T03:16:54;0.10;;;0.10;;
36979;SDS011;22891;50.562;7.272;2022-07-22T03:19:20;0.10;;;0.10;;
36979;SDS011;22891;50.562;7.272;2022-07-22T03:21:46;0.10;;;0.10;;
36979;SDS011;22891;50.562;7.272;2022-07-22T03:24:11;0.10;;;0.10;;
36979;SDS011;22891;50.562;7.272;2022-07-22T03:26:37;0.10;;;0.10;;
36979;SDS011;22891;50.562;7.272;2022-07-22T03:29:03;0.10;;;0.10;;
36979;SDS011;22891;50.562;7.272;2022-07-22T03:31:30;0.10;;;0.10;;
36979;SDS011;22891;50.562;7.272;2022-07-22T03:33:56;0.10;;;0.10;;
36979;SDS011;22891;50.562;7.272;2022-07-22T03:36:22;0.10;;;0.10;;
36979;SDS011;22891;50.562;7.272;2022-07-22T03:38:48;0.10;;;0.10;;
36979;SDS011;22891;50.562;7.272;2022-07-22T03:41:14;0.10;;;0.10;;
36979;SDS011;22891;50.562;7.272;2022-07-22T03:43:39;0.10;;;0.10;;
36979;SDS011;22891;50.562;7.272;2022-07-22T03:46:05;0.10;;;0.10;;
36979;SDS011;22891;50.562;7.272;2022-07-22T03:48:31;0.10;;;0.10;;
36979;SDS011;22891;50.562;7.272;2022-07-22T03:50:57;0.10;;;0.10;;
36979;SDS011;22891;50.562;7.272;2022-07-22T03:53:23;0.10;;;0.10;;
36979;SDS011;22891;50.562;7.272;2022-07-22T03:55:48;0.10;;;0.10;;
36979;SDS011;22891;50.562;7.272;2022-07-22T03:58:15;0.10;;;0.10;;
36979;SDS011;22891;50.562;7.272;2022-07-22T04:00:43;0.10;;;0.10;;
36979;SDS011;22891;50.562;7.272;2022-07-22T04:03:09;0.10;;;0.10;;
36979;SDS011;22891;50.562;7.272;2022-07-22T04:05:35;0.10;;;0.10;;
36979;SDS011;22891;50.562;7.272;2022-07-22T04:08:01;0.10;;;0.10;;
36979;SDS011;22891;50.562;7.272;2022-07-22T04:10:27;0.10;;;0.10;;
36979;SDS011;22891;50.562;7.272;2022-07-22T04:12:53;0.10;;;0.10;;
36979;SDS011;22891;50.562;7.272;2022-07-22T04:15:20;0.10;;;0.10;;
36979;SDS011;22891;50.562;7.272;2022-07-22T04:17:45;0.10;;;0.10;;
36979;SDS011;22891;50.562;7.272;2022-07-22T04:20:11;0.10;;;0.10;;
36979;SDS011;22891;50.562;7.272;2022-07-22T04:22:38;0.20;;;0.20;;
36979;SDS011;22891;50.562;7.272;2022-07-22T04:25:05;0.10;;;0.10;;
36979;SDS011;22891;50.562;7.272;2022-07-22T04:27:33;0.10;;;0.10;;
36979;SDS011;22891;50.562;7.272;2022-07-22T04:29:58;0.10;;;0.10;;
36979;SDS011;22891;50.562;7.272;2022-07-22T04:32:24;0.10;;;0.10;;
36979;SDS011;22891;50.562;7.272;2022-07-22T04:34:50;0.10;;;0.10;;
36979;SDS011;22891;50.562;7.272;2022-07-22T04:37:16;0.10;;;0.10;;
36979;SDS011;22891;50.562;7.272;2022-07-22T04:39:43;0.10;;;0.10;;
36979;SDS011;22891;50.562;7.272;2022-07-22T04:42:09;0.10;;;0.10;;
36979;SDS011;22891;50.562;7.272;2022-07-22T04:44:35;0.10;;;0.10;;
36979;SDS011;22891;50.562;7.272;2022-07-22T04:47:01;0.10;;;0.10;;
36979;SDS011;22891;50.562;7.272;2022-07-22T04:49:26;0.10;;;0.10;;
36979;SDS011;22891;50.562;7.272;2022-07-22T04:51:53;0.10;;;0.10;;
36979;SDS011;22891;50.562;7.272;2022-07-22T04:54:18;0.10;;;0.10;;
36979;SDS011;22891;50.562;7.272;2022-07-22T04:56:45;0.10;;;0.10;;
36979;SDS011;22891;50.562;7.272;2022-07-22T04:59:11;0.10;;;0.10;;
36979;SDS011;22891;50.562;7.272;2022-07-22T05:01:38;0.10;;;0.10;;
36979;SDS011;22891;50.562;7.272;2022-07-22T05:04:04;0.10;;;0.10;;
36979;SDS011;22891;50.562;7.272;2022-07-22T05:06:30;0.10;;;0.10;;
36979;SDS011;22891;50.562;7.272;2022-07-22T05:08:56;0.10;;;0.10;;
36979;SDS011;22891;50.562;7.272;2022-07-22T05:11:22;0.10;;;0.10;;
36979;SDS011;22891;50.562;7.272;2022-07-22T05:13:48;0.10;;;0.10;;
36979;SDS011;22891;50.562;7.272;2022-07-22T05:16:14;0.10;;;0.10;;
36979;SDS011;22891;50.562;7.272;2022-07-22T05:18:41;0.10;;;0.10;;
36979;SDS011;22891;50.562;7.272;2022-07-22T05:21:07;0.10;;;0.10;;
36979;SDS011;22891;50.562;7.272;2022-07-22T05:23:33;0.10;;;0.10;;
36979;SDS011;22891;50.562;7.272;2022-07-22T05:25:59;0.10;;;0.10;;
36979;SDS011;22891;50.562;7.272;2022-07-22T05:28:25;0.10;;;0.10;;
36979;SDS011;22891;50.562;7.272;2022-07-22T05:30:51;0.10;;;0.10;;
36979;SDS011;22891;50.562;7.272;2022-07-22T05:33:17;0.10;;;0.10;;
36979;SDS011;22891;50.562;7.272;2022-07-22T05:35:43;0.10;;;0.10;;
36979;SDS011;22891;50.562;7.272;2022-07-22T05:38:09;0.10;;;0.10;;
36979;SDS011;22891;50.562;7.272;2022-07-22T05:40:35;0.10;;;0.10;;
36979;SDS011;22891;50.562;7.272;2022-07-22T05:43:01;0.10;;;0.10;;
36979;SDS011;22891;50.562;7.272;2022-07-22T05:45:26;0.10;;;0.10;;
36979;SDS011;22891;50.562;7.272;2022-07-22T05:47:52;0.10;;;0.10;;
36979;SDS011;22891;50.562;7.272;2022-07-22T05:50:18;0.10;;;0.10;;
36979;SDS011;22891;50.562;7.272;2022-07-22T05:52:44;0.10;;;0.10;;
36979;SDS011;22891;50.562;7.272;2022-07-22T05:55:10;0.10;;;0.10;;
36979;SDS011;22891;50.562;7.272;2022-07-22T05:57:36;0.10;;;0.10;;
36979;SDS011;22891;50.562;7.272;2022-07-22T06:00:03;0.10;;;0.10;;
36979;SDS011;22891;50.562;7.272;2022-07-22T06:02:29;0.10;;;0.10;;
36979;SDS011;22891;50.562;7.272;2022-07-22T06:04:55;0.10;;;0.10;;
36979;SDS011;22891;50.562;7.272;2022-07-22T06:07:21;0.10;;;0.10;;
36979;SDS011;22891;50.562;7.272;2022-07-22T06:09:47;0.10;;;0.10;;
36979;SDS011;22891;50.562;7.272;2022-07-22T06:12:13;0.10;;;0.10;;
36979;SDS011;22891;50.562;7.272;2022-07-22T06:14:39;0.10;;;0.10;;
36979;SDS011;22891;50.562;7.272;2022-07-22T06:17:06;0.10;;;0.10;;
36979;SDS011;22891;50.562;7.272;2022-07-22T06:19:32;0.10;;;0.10;;
36979;SDS011;22891;50.562;7.272;2022-07-22T06:21:57;0.10;;;0.10;;
36979;SDS011;22891;50.562;7.272;2022-07-22T06:24:23;0.10;;;0.10;;
36979;SDS011;22891;50.562;7.272;2022-07-22T06:26:49;0.10;;;0.10;;
36979;SDS011;22891;50.562;7.272;2022-07-22T06:29:15;0.10;;;0.10;;
36979;SDS011;22891;50.562;7.272;2022-07-22T06:31:40;0.10;;;0.10;;
36979;SDS011;22891;50.562;7.272;2022-07-22T06:34:06;0.10;;;0.10;;
36979;SDS011;22891;50.562;7.272;2022-07-22T06:36:32;0.10;;;0.10;;
36979;SDS011;22891;50.562;7.272;2022-07-22T06:38:58;0.10;;;0.10;;
36979;SDS011;22891;50.562;7.272;2022-07-22T06:41:25;0.10;;;0.10;;
36979;SDS011;22891;50.562;7.272;2022-07-22T06:43:52;0.20;;;0.20;;
36979;SDS011;22891;50.562;7.272;2022-07-22T06:46:18;0.10;;;0.10;;
36979;SDS011;22891;50.562;7.272;2022-07-22T06:48:44;0.10;;;0.10;;
36979;SDS011;22891;50.562;7.272;2022-07-22T06:51:10;0.10;;;0.10;;
36979;SDS011;22891;50.562;7.272;2022-07-22T06:53:35;0.10;;;0.10;;
36979;SDS011;22891;50.562;7.272;2022-07-22T06:56:02;0.10;;;0.10;;
36979;SDS011;22891;50.562;7.272;2022-07-22T06:58:28;0.20;;;0.20;;
36979;SDS011;22891;50.562;7.272;2022-07-22T07:00:54;0.10;;;0.10;;
36979;SDS011;22891;50.562;7.272;2022-07-22T07:03:20;0.10;;;0.10;;
36979;SDS011;22891;50.562;7.272;2022-07-22T07:05:48;0.20;;;0.20;;
36979;SDS011;22891;50.562;7.272;2022-07-22T07:08:13;0.10;;;0.10;;
36979;SDS011;22891;50.562;7.272;2022-07-22T07:10:39;0.10;;;0.10;;
36979;SDS011;22891;50.562;7.272;2022-07-22T07:13:05;0.10;;;0.10;;
36979;SDS011;22891;50.562;7.272;2022-07-22T07:15:32;0.10;;;0.10;;
36979;SDS011;22891;50.562;7.272;2022-07-22T07:17:57;0.10;;;0.10;;
36979;SDS011;22891;50.562;7.272;2022-07-22T07:20:23;0.10;;;0.10;;
36979;SDS011;22891;50.562;7.272;2022-07-22T07:22:49;0.10;;;0.10;;
36979;SDS011;22891;50.562;7.272;2022-07-22T07:25:16;0.10;;;0.10;;
36979;SDS011;22891;50.562;7.272;2022-07-22T07:27:42;0.10;;;0.10;;
36979;SDS011;22891;50.562;7.272;2022-07-22T07:30:09;0.20;;;0.20;;
36979;SDS011;22891;50.562;7.272;2022-07-22T07:32:35;0.10;;;0.10;;
36979;SDS011;22891;50.562;7.272;2022-07-22T07:35:03;0.13;;;0.13;;
36979;SDS011;22891;50.562;7.272;2022-07-22T07:37:31;0.10;;;0.10;;
36979;SDS011;22891;50.562;7.272;2022-07-22T07:39:57;0.15;;;0.15;;
36979;SDS011;22891;50.562;7.272;2022-07-22T07:42:23;0.10;;;0.10;;
36979;SDS011;22891;50.562;7.272;2022-07-22T07:44:50;0.10;;;0.10;;
36979;SDS011;22891;50.562;7.272;2022-07-22T07:47:16;0.10;;;0.10;;
36979;SDS011;22891;50.562;7.272;2022-07-22T07:49:46;0.20;;;0.20;;
36979;SDS011;22891;50.562;7.272;2022-07-22T07:52:14;0.10;;;0.10;;
36979;SDS011;22891;50.562;7.272;2022-07-22T07:54:41;0.10;;;0.10;;
36979;SDS011;22891;50.562;7.272;2022-07-22T07:57:08;0.10;;;0.10;;
36979;SDS011;22891;50.562;7.272;2022-07-22T07:59:38;0.17;;;0.17;;
36979;SDS011;22891;50.562;7.272;2022-07-22T08:02:05;0.20;;;0.20;;
36979;SDS011;22891;50.562;7.272;2022-07-22T08:04:31;0.20;;;0.20;;
36979;SDS011;22891;50.562;7.272;2022-07-22T08:06:58;0.20;;;0.20;;
36979;SDS011;22891;50.562;7.272;2022-07-22T08:09:24;0.10;;;0.10;;
36979;SDS011;22891;50.562;7.272;2022-07-22T08:11:50;0.10;;;0.10;;
36979;SDS011;22891;50.562;7.272;2022-07-22T08:14:17;0.20;;;0.20;;
36979;SDS011;22891;50.562;7.272;2022-07-22T08:16:43;0.20;;;0.20;;
36979;SDS011;22891;50.562;7.272;2022-07-22T08:19:09;0.10;;;0.10;;
36979;SDS011;22891;50.562;7.272;2022-07-22T08:21:34;0.10;;;0.10;;
36979;SDS011;22891;50.562;7.272;2022-07-22T08:24:01;0.20;;;0.20;;
36979;SDS011;22891;50.562;7.272;2022-07-22T08:26:27;0.20;;;0.20;;
36979;SDS011;22891;50.562;7.272;2022-07-22T08:28:53;0.20;;;0.20;;
36979;SDS011;22891;50.562;7.272;2022-07-22T08:31:19;0.20;;;0.20;;
36979;SDS011;22891;50.562;7.272;2022-07-22T08:33:44;0.20;;;0.20;;
36979;SDS011;22891;50.562;7.272;2022-07-22T08:36:10;0.10;;;0.10;;
36979;SDS011;22891;50.562;7.272;2022-07-22T08:38:36;0.20;;;0.20;;
36979;SDS011;22891;50.562;7.272;2022-07-22T08:41:02;0.20;;;0.20;;
36979;SDS011;22891;50.562;7.272;2022-07-22T08:43:30;0.20;;;0.20;;
36979;SDS011;22891;50.562;7.272;2022-07-22T08:45:59;0.10;;;0.10;;
36979;SDS011;22891;50.562;7.272;2022-07-22T08:48:27;0.20;;;0.20;;
36979;SDS011;22891;50.562;7.272;2022-07-22T08:50:52;0.10;;;0.10;;
36979;SDS011;22891;50.562;7.272;2022-07-22T08:53:18;0.20;;;0.20;;
36979;SDS011;22891;50.562;7.272;2022-07-22T08:55:45;0.20;;;0.20;;
36979;SDS011;22891;50.562;7.272;2022-07-22T08:58:13;0.20;;;0.20;;
36979;SDS011;22891;50.562;7.272;2022-07-22T09:00:40;0.20;;;0.20;;
36979;SDS011;22891;50.562;7.272;2022-07-22T09:03:22;0.20;;;0.20;;
36979;SDS011;22891;50.562;7.272;2022-07-22T09:05:53;0.20;;;0.20;;
36979;SDS011;22891;50.562;7.272;2022-07-22T09:08:20;0.20;;;0.20;;
36979;SDS011;22891;50.562;7.272;2022-07-22T09:10:47;0.20;;;0.20;;
36979;SDS011;22891;50.562;7.272;2022-07-22T09:13:14;0.20;;;0.20;;
36979;SDS011;22891;50.562;7.272;2022-07-22T09:15:49;0.20;;;0.20;;
36979;SDS011;22891;50.562;7.272;2022-07-22T09:18:16;0.20;;;0.20;;
36979;SDS011;22891;50.562;7.272;2022-07-22T09:20:42;0.20;;;0.20;;
36979;SDS011;22891;50.562;7.272;2022-07-22T09:23:12;0.20;;;0.20;;
36979;SDS011;22891;50.562;7.272;2022-07-22T09:25:44;0.20;;;0.20;;
36979;SDS011;22891;50.562;7.272;2022-07-22T09:28:11;0.20;;;0.20;;
36979;SDS011;22891;50.562;7.272;2022-07-22T09:30:50;0.20;;;0.20;;
36979;SDS011;22891;50.562;7.272;2022-07-22T09:33:18;0.20;;;0.20;;
36979;SDS011;22891;50.562;7.272;2022-07-22T09:35:46;0.20;;;0.20;;
36979;SDS011;22891;50.562;7.272;2022-07-22T09:38:12;0.20;;;0.20;;
36979;SDS011;22891;50.562;7.272;2022-07-22T09:40:43;0.20;;;0.20;;
36979;SDS011;22891;50.562;7.272;2022-07-22T09:43:14;0.20;;;0.20;;
36979;SDS011;22891;50.562;7.272;2022-07-22T09:45:46;0.20;;;0.20;;
36979;SDS011;22891;50.562;7.272;2022-07-22T09:48:19;0.20;;;0.20;;
36979;SDS011;22891;50.562;7.272;2022-07-22T09:50:47;0.20;;;0.20;;
36979;SDS011;22891;50.562;7.272;2022-07-22T09:53:16;0.20;;;0.20;;
36979;SDS011;22891;50.562;7.272;2022-07-22T09:55:46;0.20;;;0.20;;
36979;SDS011;22891;50.562;7.272;2022-07-22T09:58:12;0.20;;;0.20;;
36979;SDS011;22891;50.562;7.272;2022-07-22T10:00:40;0.20;;;0.20;;
36979;SDS011;22891;50.562;7.272;2022-07-22T10:03:08;0.20;;;0.20;;
36979;SDS011;22891;50.562;7.272;2022-07-22T10:05:40;0.20;;;0.20;;
36979;SDS011;22891;50.562;7.272;2022-07-22T10:08:07;0.20;;;0.20;;
36979;SDS011;22891;50.562;7.272;2022-07-22T10:10:34;0.20;;;0.20;;
36979;SDS011;22891;50.562;7.272;2022-07-22T10:13:04;0.20;;;0.20;;
36979;SDS011;22891;50.562;7.272;2022-07-22T10:15:31;0.20;;;0.20;;
36979;SDS011;22891;50.562;7.272;2022-07-22T10:17:59;0.20;;;0.20;;
36979;SDS011;22891;50.562;7.272;2022-07-22T10:20:29;0.20;;;0.20;;
36979;SDS011;22891;50.562;7.272;2022-07-22T10:23:03;0.17;;;0.17;;
36979;SDS011;22891;50.562;7.272;2022-07-22T10:25:32;0.10;;;0.10;;
36979;SDS011;22891;50.562;7.272;2022-07-22T10:28:28;0.20;;;0.20;;
36979;SDS011;22891;50.562;7.272;2022-07-22T10:33:45;0.20;;;0.20;;
36979;SDS011;22891;50.562;7.272;2022-07-22T10:36:16;0.20;;;0.20;;
36979;SDS011;22891;50.562;7.272;2022-07-22T10:39:09;0.20;;;0.20;;
36979;SDS011;22891;50.562;7.272;2022-07-22T10:41:38;0.20;;;0.20;;
36979;SDS011;22891;50.562;7.272;2022-07-22T10:44:06;0.20;;;0.20;;
36979;SDS011;22891;50.562;7.272;2022-07-22T10:46:55;0.20;;;0.20;;
36979;SDS011;22891;50.562;7.272;2022-07-22T10:49:24;0.20;;;0.20;;
36979;SDS011;22891;50.562;7.272;2022-07-22T10:52:10;0.20;;;0.20;;
36979;SDS011;22891;50.562;7.272;2022-07-22T10:57:45;0.20;;;0.20;;
36979;SDS011;22891;50.562;7.272;2022-07-22T11:00:13;0.20;;;0.20;;
36979;SDS011;22891;50.562;7.272;2022-07-22T11:02:40;0.10;;;0.10;;
36979;SDS011;22891;50.562;7.272;2022-07-22T11:05:06;0.10;;;0.10;;
36979;SDS011;22891;50.562;7.272;2022-07-22T11:07:33;0.20;;;0.20;;
36979;SDS011;22891;50.562;7.272;2022-07-22T11:10:13;0.20;;;0.20;;
36979;SDS011;22891;50.562;7.272;2022-07-22T11:12:41;0.20;;;0.20;;
36979;SDS011;22891;50.562;7.272;2022-07-22T11:15:09;0.20;;;0.20;;
36979;SDS011;22891;50.562;7.272;2022-07-22T11:17:36;0.20;;;0.20;;
36979;SDS011;22891;50.562;7.272;2022-07-22T11:20:07;0.20;;;0.20;;
36979;SDS011;22891;50.562;7.272;2022-07-22T11:22:35;0.20;;;0.20;;
36979;SDS011;22891;50.562;7.272;2022-07-22T11:25:08;0.20;;;0.20;;
36979;SDS011;22891;50.562;7.272;2022-07-22T11:27:36;0.20;;;0.20;;
36979;SDS011;22891;50.562;7.272;2022-07-22T11:30:02;0.17;;;0.17;;
36979;SDS011;22891;50.562;7.272;2022-07-22T11:32:32;0.17;;;0.17;;
36979;SDS011;22891;50.562;7.272;2022-07-22T11:35:10;0.20;;;0.20;;
36979;SDS011;22891;50.562;7.272;2022-07-22T11:37:37;0.20;;;0.20;;
36979;SDS011;22891;50.562;7.272;2022-07-22T11:40:07;0.20;;;0.20;;
36979;SDS011;22891;50.562;7.272;2022-07-22T11:42:35;0.17;;;0.17;;
36979;SDS011;22891;50.562;7.272;2022-07-22T11:45:02;0.20;;;0.20;;
36979;SDS011;22891;50.562;7.272;2022-07-22T11:47:28;0.20;;;0.20;;
36979;SDS011;22891;50.562;7.272;2022-07-22T11:49:54;0.20;;;0.20;;
36979;SDS011;22891;50.562;7.272;2022-07-22T11:52:20;0.20;;;0.20;;
36979;SDS011;22891;50.562;7.272;2022-07-22T11:54:46;0.20;;;0.20;;
36979;SDS011;22891;50.562;7.272;2022-07-22T11:57:12;0.20;;;0.20;;
36979;SDS011;22891;50.562;7.272;2022-07-22T11:59:39;0.20;;;0.20;;
36979;SDS011;22891;50.562;7.272;2022-07-22T12:02:06;0.20;;;0.20;;
36979;SDS011;22891;50.562;7.272;2022-07-22T12:04:34;0.20;;;0.20;;
36979;SDS011;22891;50.562;7.272;2022-07-22T12:07:01;0.20;;;0.20;;
36979;SDS011;22891;50.562;7.272;2022-07-22T12:09:33;0.20;;;0.20;;
36979;SDS011;22891;50.562;7.272;2022-07-22T12:12:00;0.20;;;0.20;;
36979;SDS011;22891;50.562;7.272;2022-07-22T12:14:30;0.20;;;0.20;;
36979;SDS011;22891;50.562;7.272;2022-07-22T12:19:41;0.20;;;0.20;;
36979;SDS011;22891;50.562;7.272;2022-07-22T12:22:20;0.20;;;0.20;;
36979;SDS011;22891;50.562;7.272;2022-07-22T12:24:57;0.20;;;0.20;;
36979;SDS011;22891;50.562;7.272;2022-07-22T12:27:25;0.20;;;0.20;;
36979;SDS011;22891;50.562;7.272;2022-07-22T12:29:51;0.20;;;0.20;;
36979;SDS011;22891;50.562;7.272;2022-07-22T12:32:18;0.20;;;0.20;;
36979;SDS011;22891;50.562;7.272;2022-07-22T12:34:57;0.20;;;0.20;;
36979;SDS011;22891;50.562;7.272;2022-07-22T12:37:44;0.20;;;0.20;;
36979;SDS011;22891;50.562;7.272;2022-07-22T12:40:17;0.20;;;0.20;;
36979;SDS011;22891;50.562;7.272;2022-07-22T12:42:59;0.15;;;0.15;;
36979;SDS011;22891;50.562;7.272;2022-07-22T12:45:27;0.10;;;0.10;;
36979;SDS011;22891;50.562;7.272;2022-07-22T12:50:56;0.20;;;0.20;;
36979;SDS011;22891;50.562;7.272;2022-07-22T12:53:23;0.20;;;0.20;;
36979;SDS011;22891;50.562;7.272;2022-07-22T12:55:54;0.20;;;0.20;;
36979;SDS011;22891;50.562;7.272;2022-07-22T12:58:22;0.20;;;0.20;;
36979;SDS011;22891;50.562;7.272;2022-07-22T13:00:54;0.20;;;0.20;;
36979;SDS011;22891;50.562;7.272;2022-07-22T13:03:22;0.20;;;0.20;;
36979;SDS011;22891;50.562;7.272;2022-07-22T13:05:54;0.10;;;0.10;;
36979;SDS011;22891;50.562;7.272;2022-07-22T13:08:22;0.10;;;0.10;;
36979;SDS011;22891;50.562;7.272;2022-07-22T13:10:51;0.15;;;0.15;;
36979;SDS011;22891;50.562;7.272;2022-07-22T13:13:18;0.20;;;0.20;;
36979;SDS011;22891;50.562;7.272;2022-07-22T13:15:45;0.20;;;0.20;;
36979;SDS011;22891;50.562;7.272;2022-07-22T13:18:11;0.20;;;0.20;;
36979;SDS011;22891;50.562;7.272;2022-07-22T13:20:36;0.10;;;0.10;;
36979;SDS011;22891;50.562;7.272;2022-07-22T13:23:03;0.20;;;0.20;;
36979;SDS011;22891;50.562;7.272;2022-07-22T13:25:29;0.20;;;0.20;;
36979;SDS011;22891;50.562;7.272;2022-07-22T13:27:56;0.20;;;0.20;;
36979;SDS011;22891;50.562;7.272;2022-07-22T13:30:22;0.13;;;0.13;;
36979;SDS011;22891;50.562;7.272;2022-07-22T13:32:48;0.10;;;0.10;;
36979;SDS011;22891;50.562;7.272;2022-07-22T13:35:15;0.20;;;0.20;;
36979;SDS011;22891;50.562;7.272;2022-07-22T13:37:42;0.10;;;0.10;;
36979;SDS011;22891;50.562;7.272;2022-07-22T13:40:09;0.10;;;0.10;;
36979;SDS011;22891;50.562;7.272;2022-07-22T13:42:35;0.20;;;0.20;;
36979;SDS011;22891;50.562;7.272;2022-07-22T13:45:01;0.20;;;0.20;;
36979;SDS011;22891;50.562;7.272;2022-07-22T13:47:29;0.20;;;0.20;;
36979;SDS011;22891;50.562;7.272;2022-07-22T13:49:55;0.20;;;0.20;;
36979;SDS011;22891;50.562;7.272;2022-07-22T13:52:21;0.10;;;0.10;;
36979;SDS011;22891;50.562;7.272;2022-07-22T13:54:48;0.10;;;0.10;;
36979;SDS011;22891;50.562;7.272;2022-07-22T13:57:15;0.17;;;0.17;;
36979;SDS011;22891;50.562;7.272;2022-07-22T13:59:42;0.10;;;0.10;;
36979;SDS011;22891;50.562;7.272;2022-07-22T14:02:08;0.10;;;0.10;;
36979;SDS011;22891;50.562;7.272;2022-07-22T14:04:34;0.17;;;0.17;;
36979;SDS011;22891;50.562;7.272;2022-07-22T14:07:00;0.10;;;0.10;;
36979;SDS011;22891;50.562;7.272;2022-07-22T14:09:26;0.20;;;0.20;;
36979;SDS011;22891;50.562;7.272;2022-07-22T14:11:51;0.20;;;0.20;;
36979;SDS011;22891;50.562;7.272;2022-07-22T14:14:17;0.10;;;0.10;;
36979;SDS011;22891;50.562;7.272;2022-07-22T14:16:43;0.15;;;0.15;;
36979;SDS011;22891;50.562;7.272;2022-07-22T14:19:10;0.10;;;0.10;;
36979;SDS011;22891;50.562;7.272;2022-07-22T14:21:38;0.10;;;0.10;;
36979;SDS011;22891;50.562;7.272;2022-07-22T14:24:09;0.10;;;0.10;;
36979;SDS011;22891;50.562;7.272;2022-07-22T14:26:36;0.10;;;0.10;;
36979;SDS011;22891;50.562;7.272;2022-07-22T14:29:02;0.10;;;0.10;;
36979;SDS011;22891;50.562;7.272;2022-07-22T14:31:30;0.20;;;0.20;;
36979;SDS011;22891;50.562;7.272;2022-07-22T14:33:57;0.10;;;0.10;;
36979;SDS011;22891;50.562;7.272;2022-07-22T14:36:23;0.10;;;0.10;;
36979;SDS011;22891;50.562;7.272;2022-07-22T14:38:50;0.20;;;0.20;;
36979;SDS011;22891;50.562;7.272;2022-07-22T14:41:16;0.10;;;0.10;;
36979;SDS011;22891;50.562;7.272;2022-07-22T14:43:42;0.15;;;0.15;;
36979;SDS011;22891;50.562;7.272;2022-07-22T14:46:08;0.20;;;0.20;;
36979;SDS011;22891;50.562;7.272;2022-07-22T14:48:35;0.20;;;0.20;;
36979;SDS011;22891;50.562;7.272;2022-07-22T14:51:02;0.20;;;0.20;;
36979;SDS011;22891;50.562;7.272;2022-07-22T14:53:29;0.20;;;0.20;;
36979;SDS011;22891;50.562;7.272;2022-07-22T14:55:55;0.20;;;0.20;;
36979;SDS011;22891;50.562;7.272;2022-07-22T14:58:22;0.20;;;0.20;;
36979;SDS011;22891;50.562;7.272;2022-07-22T15:00:48;0.10;;;0.10;;